sensor_id;sensor_type;location;lat;lon;timestamp;P1;durP1;ratioP1;P2;durP2;ratioP2
41233;SDS011;26968;42.686;23.352;2023-04-05T00:01:28;23.70;;;14.25;;
41233;SDS011;26968;42.686;23.352;2023-04-05T00:03:55;21.30;;;12.45;;
41233;SDS011;26968;42.686;23.352;2023-04-05T00:06:24;24.88;;;13.40;;
41233;SDS011;26968;42.686;23.352;2023-04-05T00:08:57;23.08;;;14.15;;
41233;SDS011;26968;42.686;23.352;2023-04-05T00:11:27;19.27;;;12.90;;
41233;SDS011;26968;42.686;23.352;2023-04-05T00:13:59;22.25;;;12.80;;
41233;SDS011;26968;42.686;23.352;2023-04-05T00:16:26;20.67;;;12.65;;
41233;SDS011;26968;42.686;23.352;2023-04-05T00:18:53;22.20;;;13.52;;
41233;SDS011;26968;42.686;23.352;2023-04-05T00:21:21;19.75;;;12.45;;
41233;SDS011;26968;42.686;23.352;2023-04-05T00:23:48;23.63;;;14.70;;
41233;SDS011;26968;42.686;23.352;2023-04-05T00:26:22;22.45;;;14.07;;
41233;SDS011;26968;42.686;23.352;2023-04-05T00:28:48;25.08;;;14.05;;
41233;SDS011;26968;42.686;23.352;2023-04-05T00:31:14;19.30;;;12.13;;
41233;SDS011;26968;42.686;23.352;2023-04-05T00:33:40;21.95;;;12.60;;
41233;SDS011;26968;42.686;23.352;2023-04-05T00:38:35;21.52;;;12.63;;
41233;SDS011;26968;42.686;23.352;2023-04-05T00:41:01;18.38;;;11.52;;
41233;SDS011;26968;42.686;23.352;2023-04-05T00:43:27;19.88;;;11.48;;
41233;SDS011;26968;42.686;23.352;2023-04-05T00:45:53;27.23;;;14.68;;
41233;SDS011;26968;42.686;23.352;2023-04-05T00:48:19;17.30;;;11.32;;
41233;SDS011;26968;42.686;23.352;2023-04-05T00:50:45;17.83;;;10.93;;
41233;SDS011;26968;42.686;23.352;2023-04-05T00:53:14;15.18;;;10.27;;
41233;SDS011;26968;42.686;23.352;2023-04-05T00:55:42;17.40;;;11.30;;
41233;SDS011;26968;42.686;23.352;2023-04-05T00:58:08;18.90;;;10.32;;
41233;SDS011;26968;42.686;23.352;2023-04-05T01:00:37;15.95;;;9.85;;
41233;SDS011;26968;42.686;23.352;2023-04-05T01:03:03;15.55;;;10.52;;
41233;SDS011;26968;42.686;23.352;2023-04-05T01:05:46;14.40;;;9.63;;
41233;SDS011;26968;42.686;23.352;2023-04-05T01:10:49;16.95;;;10.35;;
41233;SDS011;26968;42.686;23.352;2023-04-05T01:13:19;12.73;;;8.45;;
41233;SDS011;26968;42.686;23.352;2023-04-05T01:15:44;15.65;;;9.88;;
41233;SDS011;26968;42.686;23.352;2023-04-05T01:18:10;13.45;;;9.50;;
41233;SDS011;26968;42.686;23.352;2023-04-05T01:20:40;16.08;;;9.18;;
41233;SDS011;26968;42.686;23.352;2023-04-05T01:34:48;10.65;;;7.32;;
41233;SDS011;26968;42.686;23.352;2023-04-05T01:37:22;12.13;;;7.63;;
41233;SDS011;26968;42.686;23.352;2023-04-05T01:39:55;10.13;;;6.90;;
41233;SDS011;26968;42.686;23.352;2023-04-05T01:42:22;14.85;;;7.55;;
41233;SDS011;26968;42.686;23.352;2023-04-05T01:44:52;10.90;;;7.53;;
41233;SDS011;26968;42.686;23.352;2023-04-05T01:47:18;12.05;;;8.15;;
41233;SDS011;26968;42.686;23.352;2023-04-05T01:49:44;11.10;;;7.40;;
41233;SDS011;26968;42.686;23.352;2023-04-05T01:52:10;10.10;;;7.05;;
41233;SDS011;26968;42.686;23.352;2023-04-05T01:54:35;11.27;;;6.80;;
41233;SDS011;26968;42.686;23.352;2023-04-05T01:57:01;10.77;;;7.05;;
41233;SDS011;26968;42.686;23.352;2023-04-05T01:59:26;13.20;;;6.85;;
41233;SDS011;26968;42.686;23.352;2023-04-05T02:01:52;9.23;;;6.57;;
41233;SDS011;26968;42.686;23.352;2023-04-05T02:04:17;9.40;;;6.35;;
41233;SDS011;26968;42.686;23.352;2023-04-05T02:06:42;10.32;;;6.53;;
41233;SDS011;26968;42.686;23.352;2023-04-05T02:09:08;8.93;;;6.10;;
41233;SDS011;26968;42.686;23.352;2023-04-05T02:11:33;9.75;;;5.85;;
41233;SDS011;26968;42.686;23.352;2023-04-05T02:13:59;8.23;;;5.78;;
41233;SDS011;26968;42.686;23.352;2023-04-05T02:16:24;9.00;;;6.25;;
41233;SDS011;26968;42.686;23.352;2023-04-05T02:18:51;8.90;;;5.55;;
41233;SDS011;26968;42.686;23.352;2023-04-05T02:21:21;7.80;;;5.40;;
41233;SDS011;26968;42.686;23.352;2023-04-05T02:23:48;7.13;;;5.50;;
41233;SDS011;26968;42.686;23.352;2023-04-05T02:26:14;9.23;;;5.70;;
41233;SDS011;26968;42.686;23.352;2023-04-05T02:28:39;9.23;;;5.47;;
41233;SDS011;26968;42.686;23.352;2023-04-05T02:31:08;9.30;;;6.45;;
41233;SDS011;26968;42.686;23.352;2023-04-05T02:33:37;13.80;;;6.97;;
41233;SDS011;26968;42.686;23.352;2023-04-05T02:36:04;9.73;;;6.38;;
41233;SDS011;26968;42.686;23.352;2023-04-05T02:38:39;8.45;;;6.07;;
41233;SDS011;26968;42.686;23.352;2023-04-05T02:41:08;9.45;;;6.50;;
41233;SDS011;26968;42.686;23.352;2023-04-05T02:43:36;9.10;;;5.97;;
41233;SDS011;26968;42.686;23.352;2023-04-05T02:46:01;9.65;;;6.13;;
41233;SDS011;26968;42.686;23.352;2023-04-05T02:48:26;10.98;;;7.15;;
41233;SDS011;26968;42.686;23.352;2023-04-05T02:50:52;9.90;;;6.05;;
41233;SDS011;26968;42.686;23.352;2023-04-05T02:53:18;14.20;;;6.72;;
41233;SDS011;26968;42.686;23.352;2023-04-05T02:55:50;8.25;;;5.88;;
41233;SDS011;26968;42.686;23.352;2023-04-05T02:58:17;9.98;;;6.63;;
41233;SDS011;26968;42.686;23.352;2023-04-05T03:00:44;8.77;;;6.00;;
41233;SDS011;26968;42.686;23.352;2023-04-05T03:03:18;12.07;;;6.18;;
41233;SDS011;26968;42.686;23.352;2023-04-05T03:05:45;9.40;;;6.63;;
41233;SDS011;26968;42.686;23.352;2023-04-05T03:08:13;8.75;;;6.30;;
41233;SDS011;26968;42.686;23.352;2023-04-05T03:10:45;11.77;;;7.85;;
41233;SDS011;26968;42.686;23.352;2023-04-05T03:13:11;10.98;;;7.32;;
41233;SDS011;26968;42.686;23.352;2023-04-05T03:15:40;11.73;;;7.80;;
41233;SDS011;26968;42.686;23.352;2023-04-05T03:18:06;11.75;;;7.22;;
41233;SDS011;26968;42.686;23.352;2023-04-05T03:20:32;11.68;;;7.93;;
41233;SDS011;26968;42.686;23.352;2023-04-05T03:23:03;10.85;;;6.63;;
41233;SDS011;26968;42.686;23.352;2023-04-05T03:25:30;11.60;;;7.63;;
41233;SDS011;26968;42.686;23.352;2023-04-05T03:27:55;12.38;;;7.80;;
41233;SDS011;26968;42.686;23.352;2023-04-05T03:30:22;13.30;;;7.55;;
41233;SDS011;26968;42.686;23.352;2023-04-05T03:32:47;12.50;;;6.85;;
41233;SDS011;26968;42.686;23.352;2023-04-05T03:35:12;12.75;;;6.70;;
41233;SDS011;26968;42.686;23.352;2023-04-05T03:37:40;11.18;;;7.70;;
41233;SDS011;26968;42.686;23.352;2023-04-05T03:40:06;9.82;;;6.88;;
41233;SDS011;26968;42.686;23.352;2023-04-05T03:42:34;11.25;;;6.32;;
41233;SDS011;26968;42.686;23.352;2023-04-05T03:45:00;7.22;;;5.72;;
41233;SDS011;26968;42.686;23.352;2023-04-05T03:47:25;11.10;;;7.10;;
41233;SDS011;26968;42.686;23.352;2023-04-05T03:49:51;12.35;;;7.97;;
41233;SDS011;26968;42.686;23.352;2023-04-05T03:52:17;10.30;;;6.78;;
41233;SDS011;26968;42.686;23.352;2023-04-05T03:54:42;9.30;;;6.47;;
41233;SDS011;26968;42.686;23.352;2023-04-05T03:57:08;8.27;;;5.80;;
41233;SDS011;26968;42.686;23.352;2023-04-05T03:59:33;9.70;;;6.70;;
41233;SDS011;26968;42.686;23.352;2023-04-05T04:01:58;11.73;;;7.38;;
41233;SDS011;26968;42.686;23.352;2023-04-05T04:04:24;9.90;;;7.20;;
41233;SDS011;26968;42.686;23.352;2023-04-05T04:06:49;17.05;;;8.13;;
41233;SDS011;26968;42.686;23.352;2023-04-05T04:09:16;12.48;;;8.40;;
41233;SDS011;26968;42.686;23.352;2023-04-05T04:11:41;8.65;;;6.47;;
41233;SDS011;26968;42.686;23.352;2023-04-05T04:14:06;10.63;;;7.28;;
41233;SDS011;26968;42.686;23.352;2023-04-05T04:16:32;11.52;;;7.38;;
41233;SDS011;26968;42.686;23.352;2023-04-05T04:18:57;10.85;;;7.63;;
41233;SDS011;26968;42.686;23.352;2023-04-05T04:21:23;8.68;;;6.05;;
41233;SDS011;26968;42.686;23.352;2023-04-05T04:23:50;13.93;;;6.85;;
41233;SDS011;26968;42.686;23.352;2023-04-05T04:26:17;16.00;;;7.50;;
41233;SDS011;26968;42.686;23.352;2023-04-05T04:28:53;11.18;;;7.90;;
41233;SDS011;26968;42.686;23.352;2023-04-05T04:31:19;12.10;;;8.07;;
41233;SDS011;26968;42.686;23.352;2023-04-05T04:33:50;10.00;;;7.60;;
41233;SDS011;26968;42.686;23.352;2023-04-05T04:36:16;13.27;;;8.07;;
41233;SDS011;26968;42.686;23.352;2023-04-05T04:38:42;10.82;;;7.50;;
41233;SDS011;26968;42.686;23.352;2023-04-05T04:41:11;11.52;;;6.95;;
41233;SDS011;26968;42.686;23.352;2023-04-05T04:43:37;9.70;;;7.18;;
41233;SDS011;26968;42.686;23.352;2023-04-05T04:46:07;11.55;;;7.85;;
41233;SDS011;26968;42.686;23.352;2023-04-05T04:48:34;11.35;;;5.57;;
41233;SDS011;26968;42.686;23.352;2023-04-05T04:51:02;10.82;;;7.25;;
41233;SDS011;26968;42.686;23.352;2023-04-05T04:53:28;9.80;;;6.32;;
41233;SDS011;26968;42.686;23.352;2023-04-05T04:55:53;8.13;;;6.40;;
41233;SDS011;26968;42.686;23.352;2023-04-05T04:58:20;8.43;;;5.22;;
41233;SDS011;26968;42.686;23.352;2023-04-05T05:00:45;6.78;;;4.78;;
41233;SDS011;26968;42.686;23.352;2023-04-05T05:03:12;7.13;;;4.32;;
41233;SDS011;26968;42.686;23.352;2023-04-05T05:05:45;8.27;;;5.43;;
41233;SDS011;26968;42.686;23.352;2023-04-05T05:08:14;8.40;;;5.85;;
41233;SDS011;26968;42.686;23.352;2023-04-05T05:10:40;7.60;;;5.30;;
41233;SDS011;26968;42.686;23.352;2023-04-05T05:13:06;6.40;;;4.82;;
41233;SDS011;26968;42.686;23.352;2023-04-05T05:15:31;6.85;;;5.03;;
41233;SDS011;26968;42.686;23.352;2023-04-05T05:17:57;6.82;;;4.70;;
41233;SDS011;26968;42.686;23.352;2023-04-05T05:20:23;5.20;;;3.78;;
41233;SDS011;26968;42.686;23.352;2023-04-05T05:22:52;7.45;;;4.65;;
41233;SDS011;26968;42.686;23.352;2023-04-05T05:25:18;6.15;;;4.13;;
41233;SDS011;26968;42.686;23.352;2023-04-05T05:27:46;7.90;;;4.85;;
41233;SDS011;26968;42.686;23.352;2023-04-05T05:30:13;6.82;;;3.90;;
41233;SDS011;26968;42.686;23.352;2023-04-05T05:32:39;6.32;;;3.95;;
41233;SDS011;26968;42.686;23.352;2023-04-05T05:35:05;6.22;;;4.68;;
41233;SDS011;26968;42.686;23.352;2023-04-05T05:37:32;6.13;;;4.22;;
41233;SDS011;26968;42.686;23.352;2023-04-05T05:39:58;5.55;;;3.95;;
41233;SDS011;26968;42.686;23.352;2023-04-05T05:42:24;6.18;;;4.18;;
41233;SDS011;26968;42.686;23.352;2023-04-05T05:44:51;5.18;;;3.72;;
41233;SDS011;26968;42.686;23.352;2023-04-05T05:47:16;4.20;;;3.05;;
41233;SDS011;26968;42.686;23.352;2023-04-05T05:49:42;6.22;;;4.47;;
41233;SDS011;26968;42.686;23.352;2023-04-05T05:52:07;6.25;;;3.63;;
41233;SDS011;26968;42.686;23.352;2023-04-05T05:54:32;5.38;;;3.70;;
41233;SDS011;26968;42.686;23.352;2023-04-05T05:56:58;4.57;;;3.60;;
41233;SDS011;26968;42.686;23.352;2023-04-05T05:59:23;6.40;;;3.78;;
41233;SDS011;26968;42.686;23.352;2023-04-05T06:01:49;4.75;;;3.38;;
41233;SDS011;26968;42.686;23.352;2023-04-05T06:04:15;4.78;;;3.83;;
41233;SDS011;26968;42.686;23.352;2023-04-05T06:06:41;10.85;;;3.45;;
41233;SDS011;26968;42.686;23.352;2023-04-05T06:09:13;3.63;;;2.90;;
41233;SDS011;26968;42.686;23.352;2023-04-05T06:11:39;7.13;;;3.45;;
41233;SDS011;26968;42.686;23.352;2023-04-05T06:14:05;4.32;;;3.40;;
41233;SDS011;26968;42.686;23.352;2023-04-05T06:16:30;6.70;;;3.28;;
41233;SDS011;26968;42.686;23.352;2023-04-05T06:18:56;8.13;;;3.30;;
41233;SDS011;26968;42.686;23.352;2023-04-05T06:21:23;5.32;;;2.78;;
41233;SDS011;26968;42.686;23.352;2023-04-05T06:23:48;4.20;;;2.80;;
41233;SDS011;26968;42.686;23.352;2023-04-05T06:26:24;4.25;;;3.28;;
41233;SDS011;26968;42.686;23.352;2023-04-05T06:28:53;2.65;;;2.20;;
41233;SDS011;26968;42.686;23.352;2023-04-05T06:31:19;13.57;;;3.38;;
41233;SDS011;26968;42.686;23.352;2023-04-05T06:33:49;4.83;;;3.57;;
41233;SDS011;26968;42.686;23.352;2023-04-05T06:36:15;5.68;;;2.60;;
41233;SDS011;26968;42.686;23.352;2023-04-05T06:38:40;4.35;;;2.70;;
41233;SDS011;26968;42.686;23.352;2023-04-05T06:41:06;8.38;;;3.65;;
41233;SDS011;26968;42.686;23.352;2023-04-05T06:43:32;4.53;;;2.80;;
41233;SDS011;26968;42.686;23.352;2023-04-05T06:45:58;7.40;;;4.30;;
41233;SDS011;26968;42.686;23.352;2023-04-05T06:48:24;6.22;;;2.55;;
41233;SDS011;26968;42.686;23.352;2023-04-05T06:50:55;5.57;;;3.00;;
41233;SDS011;26968;42.686;23.352;2023-04-05T06:53:25;6.07;;;2.70;;
41233;SDS011;26968;42.686;23.352;2023-04-05T06:55:52;8.15;;;2.90;;
41233;SDS011;26968;42.686;23.352;2023-04-05T06:58:18;4.45;;;3.17;;
41233;SDS011;26968;42.686;23.352;2023-04-05T07:00:44;6.00;;;2.53;;
41233;SDS011;26968;42.686;23.352;2023-04-05T07:03:10;5.95;;;3.30;;
41233;SDS011;26968;42.686;23.352;2023-04-05T07:05:36;6.18;;;2.72;;
41233;SDS011;26968;42.686;23.352;2023-04-05T07:08:01;5.80;;;2.35;;
41233;SDS011;26968;42.686;23.352;2023-04-05T07:10:27;3.92;;;2.25;;
41233;SDS011;26968;42.686;23.352;2023-04-05T07:12:52;7.53;;;3.22;;
41233;SDS011;26968;42.686;23.352;2023-04-05T07:15:18;9.63;;;2.42;;
41233;SDS011;26968;42.686;23.352;2023-04-05T07:17:43;2.88;;;2.40;;
41233;SDS011;26968;42.686;23.352;2023-04-05T07:20:09;3.75;;;2.67;;
41233;SDS011;26968;42.686;23.352;2023-04-05T07:22:35;4.85;;;2.47;;
41233;SDS011;26968;42.686;23.352;2023-04-05T07:25:00;2.47;;;2.05;;
41233;SDS011;26968;42.686;23.352;2023-04-05T07:27:26;2.55;;;2.22;;
41233;SDS011;26968;42.686;23.352;2023-04-05T07:29:54;7.97;;;3.35;;
41233;SDS011;26968;42.686;23.352;2023-04-05T07:32:20;5.82;;;3.05;;
41233;SDS011;26968;42.686;23.352;2023-04-05T07:34:45;8.55;;;2.50;;
41233;SDS011;26968;42.686;23.352;2023-04-05T07:37:12;3.83;;;2.60;;
41233;SDS011;26968;42.686;23.352;2023-04-05T07:39:37;4.95;;;2.72;;
41233;SDS011;26968;42.686;23.352;2023-04-05T07:42:03;2.97;;;2.38;;
41233;SDS011;26968;42.686;23.352;2023-04-05T07:44:29;7.03;;;2.78;;
41233;SDS011;26968;42.686;23.352;2023-04-05T07:46:54;6.00;;;3.10;;
41233;SDS011;26968;42.686;23.352;2023-04-05T07:49:24;5.00;;;2.50;;
41233;SDS011;26968;42.686;23.352;2023-04-05T07:51:53;4.43;;;3.03;;
41233;SDS011;26968;42.686;23.352;2023-04-05T07:54:19;3.35;;;2.67;;
41233;SDS011;26968;42.686;23.352;2023-04-05T07:56:45;5.05;;;2.63;;
41233;SDS011;26968;42.686;23.352;2023-04-05T07:59:11;4.00;;;2.40;;
41233;SDS011;26968;42.686;23.352;2023-04-05T08:01:37;5.10;;;2.80;;
41233;SDS011;26968;42.686;23.352;2023-04-05T08:04:02;5.50;;;3.10;;
41233;SDS011;26968;42.686;23.352;2023-04-05T08:06:27;8.35;;;3.45;;
41233;SDS011;26968;42.686;23.352;2023-04-05T08:08:53;9.10;;;2.88;;
41233;SDS011;26968;42.686;23.352;2023-04-05T08:11:19;3.63;;;2.72;;
41233;SDS011;26968;42.686;23.352;2023-04-05T08:13:45;4.28;;;2.85;;
41233;SDS011;26968;42.686;23.352;2023-04-05T08:16:11;6.85;;;2.88;;
41233;SDS011;26968;42.686;23.352;2023-04-05T08:18:36;3.55;;;2.55;;
41233;SDS011;26968;42.686;23.352;2023-04-05T08:21:02;5.70;;;2.92;;
41233;SDS011;26968;42.686;23.352;2023-04-05T08:23:28;4.25;;;3.38;;
41233;SDS011;26968;42.686;23.352;2023-04-05T08:25:54;4.68;;;2.47;;
41233;SDS011;26968;42.686;23.352;2023-04-05T08:28:19;4.47;;;3.25;;
41233;SDS011;26968;42.686;23.352;2023-04-05T08:30:45;5.05;;;2.83;;
41233;SDS011;26968;42.686;23.352;2023-04-05T08:33:11;3.65;;;2.88;;
41233;SDS011;26968;42.686;23.352;2023-04-05T08:35:36;4.20;;;2.85;;
41233;SDS011;26968;42.686;23.352;2023-04-05T08:38:03;5.85;;;4.15;;
41233;SDS011;26968;42.686;23.352;2023-04-05T08:40:38;6.57;;;2.85;;
41233;SDS011;26968;42.686;23.352;2023-04-05T08:46:08;3.80;;;2.97;;
41233;SDS011;26968;42.686;23.352;2023-04-05T08:48:36;7.00;;;2.72;;
41233;SDS011;26968;42.686;23.352;2023-04-05T08:51:01;5.35;;;2.60;;
41233;SDS011;26968;42.686;23.352;2023-04-05T08:53:27;2.33;;;2.13;;
41233;SDS011;26968;42.686;23.352;2023-04-05T08:55:55;6.85;;;2.50;;
41233;SDS011;26968;42.686;23.352;2023-04-05T08:58:21;4.13;;;2.90;;
41233;SDS011;26968;42.686;23.352;2023-04-05T09:00:51;7.00;;;2.72;;
41233;SDS011;26968;42.686;23.352;2023-04-05T09:03:21;4.45;;;2.63;;
41233;SDS011;26968;42.686;23.352;2023-04-05T09:05:49;5.20;;;3.47;;
41233;SDS011;26968;42.686;23.352;2023-04-05T09:08:15;6.15;;;2.97;;
41233;SDS011;26968;42.686;23.352;2023-04-05T09:10:42;4.30;;;3.15;;
41233;SDS011;26968;42.686;23.352;2023-04-05T09:13:08;5.82;;;3.08;;
41233;SDS011;26968;42.686;23.352;2023-04-05T09:15:37;5.70;;;3.38;;
41233;SDS011;26968;42.686;23.352;2023-04-05T09:18:02;26.42;;;4.57;;
41233;SDS011;26968;42.686;23.352;2023-04-05T09:20:29;8.20;;;3.42;;
41233;SDS011;26968;42.686;23.352;2023-04-05T09:22:55;5.32;;;3.83;;
41233;SDS011;26968;42.686;23.352;2023-04-05T09:27:56;4.95;;;2.90;;
41233;SDS011;26968;42.686;23.352;2023-04-05T09:30:22;5.55;;;3.30;;
41233;SDS011;26968;42.686;23.352;2023-04-05T09:32:52;3.78;;;2.97;;
41233;SDS011;26968;42.686;23.352;2023-04-05T09:35:20;4.45;;;3.28;;
41233;SDS011;26968;42.686;23.352;2023-04-05T09:37:52;7.00;;;3.55;;
41233;SDS011;26968;42.686;23.352;2023-04-05T09:40:20;5.40;;;3.80;;
41233;SDS011;26968;42.686;23.352;2023-04-05T09:42:46;5.50;;;3.80;;
41233;SDS011;26968;42.686;23.352;2023-04-05T09:45:12;4.95;;;2.88;;
41233;SDS011;26968;42.686;23.352;2023-04-05T09:47:52;5.45;;;4.20;;
41233;SDS011;26968;42.686;23.352;2023-04-05T09:50:33;4.05;;;3.00;;
41233;SDS011;26968;42.686;23.352;2023-04-05T09:55:31;5.85;;;3.53;;
41233;SDS011;26968;42.686;23.352;2023-04-05T09:58:02;6.93;;;4.05;;
41233;SDS011;26968;42.686;23.352;2023-04-05T10:00:28;6.50;;;4.05;;
41233;SDS011;26968;42.686;23.352;2023-04-05T10:02:56;6.30;;;3.50;;
41233;SDS011;26968;42.686;23.352;2023-04-05T10:05:27;8.75;;;4.57;;
41233;SDS011;26968;42.686;23.352;2023-04-05T10:07:54;7.07;;;4.72;;
41233;SDS011;26968;42.686;23.352;2023-04-05T10:10:20;8.88;;;4.53;;
41233;SDS011;26968;42.686;23.352;2023-04-05T10:12:47;5.60;;;4.10;;
41233;SDS011;26968;42.686;23.352;2023-04-05T10:15:15;7.20;;;3.67;;
41233;SDS011;26968;42.686;23.352;2023-04-05T10:17:55;7.53;;;4.28;;
41233;SDS011;26968;42.686;23.352;2023-04-05T10:20:28;6.25;;;3.95;;
41233;SDS011;26968;42.686;23.352;2023-04-05T10:28:32;8.52;;;5.05;;
41233;SDS011;26968;42.686;23.352;2023-04-05T10:33:54;9.25;;;4.63;;
41233;SDS011;26968;42.686;23.352;2023-04-05T10:41:52;8.15;;;5.60;;
41233;SDS011;26968;42.686;23.352;2023-04-05T10:44:18;10.45;;;5.70;;
41233;SDS011;26968;42.686;23.352;2023-04-05T10:46:44;12.02;;;5.72;;
41233;SDS011;26968;42.686;23.352;2023-04-05T10:49:11;7.05;;;4.93;;
41233;SDS011;26968;42.686;23.352;2023-04-05T10:52:00;8.10;;;5.95;;
41233;SDS011;26968;42.686;23.352;2023-04-05T10:54:27;10.02;;;5.95;;
41233;SDS011;26968;42.686;23.352;2023-04-05T10:56:56;10.02;;;5.53;;
41233;SDS011;26968;42.686;23.352;2023-04-05T10:59:23;8.57;;;6.45;;
41233;SDS011;26968;42.686;23.352;2023-04-05T11:01:50;7.80;;;5.32;;
41233;SDS011;26968;42.686;23.352;2023-04-05T11:04:17;6.53;;;5.00;;
41233;SDS011;26968;42.686;23.352;2023-04-05T11:06:42;11.77;;;4.63;;
41233;SDS011;26968;42.686;23.352;2023-04-05T11:09:18;6.53;;;4.93;;
41233;SDS011;26968;42.686;23.352;2023-04-05T11:11:46;10.20;;;5.35;;
41233;SDS011;26968;42.686;23.352;2023-04-05T11:14:54;6.85;;;5.22;;
41233;SDS011;26968;42.686;23.352;2023-04-05T11:17:03;7.97;;;5.33;;
41233;SDS011;26968;42.686;23.352;2023-04-05T11:19:47;9.57;;;5.88;;
41233;SDS011;26968;42.686;23.352;2023-04-05T11:22:25;7.13;;;5.38;;
41233;SDS011;26968;42.686;23.352;2023-04-05T11:24:53;6.15;;;4.65;;
41233;SDS011;26968;42.686;23.352;2023-04-05T11:27:30;7.28;;;5.35;;
41233;SDS011;26968;42.686;23.352;2023-04-05T11:29:59;23.40;;;9.10;;
41233;SDS011;26968;42.686;23.352;2023-04-05T11:32:38;6.45;;;4.90;;
41233;SDS011;26968;42.686;23.352;2023-04-05T11:35:14;7.88;;;5.68;;
41233;SDS011;26968;42.686;23.352;2023-04-05T11:45:31;7.13;;;4.60;;
41233;SDS011;26968;42.686;23.352;2023-04-05T11:50:37;5.88;;;5.05;;
41233;SDS011;26968;42.686;23.352;2023-04-05T11:53:11;5.70;;;4.68;;
41233;SDS011;26968;42.686;23.352;2023-04-05T11:55:38;10.50;;;5.72;;
41233;SDS011;26968;42.686;23.352;2023-04-05T11:58:11;8.20;;;6.13;;
41233;SDS011;26968;42.686;23.352;2023-04-05T12:00:39;6.22;;;5.28;;
41233;SDS011;26968;42.686;23.352;2023-04-05T12:03:05;12.02;;;6.53;;
41233;SDS011;26968;42.686;23.352;2023-04-05T12:05:50;6.82;;;6.10;;
41233;SDS011;26968;42.686;23.352;2023-04-05T12:08:16;8.05;;;5.72;;
41233;SDS011;26968;42.686;23.352;2023-04-05T12:10:43;9.27;;;6.07;;
41233;SDS011;26968;42.686;23.352;2023-04-05T12:13:09;11.02;;;7.00;;
41233;SDS011;26968;42.686;23.352;2023-04-05T12:15:38;12.27;;;6.38;;
41233;SDS011;26968;42.686;23.352;2023-04-05T12:18:12;8.07;;;6.13;;
41233;SDS011;26968;42.686;23.352;2023-04-05T12:20:39;11.77;;;6.53;;
41233;SDS011;26968;42.686;23.352;2023-04-05T12:23:05;9.43;;;7.32;;
41233;SDS011;26968;42.686;23.352;2023-04-05T12:25:31;10.10;;;7.65;;
41233;SDS011;26968;42.686;23.352;2023-04-05T12:28:02;8.70;;;7.00;;
41233;SDS011;26968;42.686;23.352;2023-04-05T12:30:32;14.18;;;7.35;;
41233;SDS011;26968;42.686;23.352;2023-04-05T12:33:05;10.45;;;7.00;;
41233;SDS011;26968;42.686;23.352;2023-04-05T12:35:33;10.25;;;7.20;;
41233;SDS011;26968;42.686;23.352;2023-04-05T12:38:02;8.18;;;6.50;;
41233;SDS011;26968;42.686;23.352;2023-04-05T12:40:34;9.05;;;6.47;;
41233;SDS011;26968;42.686;23.352;2023-04-05T12:43:04;9.05;;;6.93;;
41233;SDS011;26968;42.686;23.352;2023-04-05T12:45:31;9.05;;;7.13;;
41233;SDS011;26968;42.686;23.352;2023-04-05T12:48:09;9.00;;;7.10;;
41233;SDS011;26968;42.686;23.352;2023-04-05T12:50:41;8.82;;;7.00;;
41233;SDS011;26968;42.686;23.352;2023-04-05T12:53:17;11.25;;;7.80;;
41233;SDS011;26968;42.686;23.352;2023-04-05T12:55:48;9.15;;;6.78;;
41233;SDS011;26968;42.686;23.352;2023-04-05T12:58:14;10.85;;;7.82;;
41233;SDS011;26968;42.686;23.352;2023-04-05T13:00:41;11.20;;;7.70;;
41233;SDS011;26968;42.686;23.352;2023-04-05T13:03:13;10.68;;;7.93;;
41233;SDS011;26968;42.686;23.352;2023-04-05T13:05:44;11.00;;;7.75;;
41233;SDS011;26968;42.686;23.352;2023-04-05T13:08:16;13.88;;;7.05;;
41233;SDS011;26968;42.686;23.352;2023-04-05T13:10:45;11.70;;;8.35;;
41233;SDS011;26968;42.686;23.352;2023-04-05T13:13:14;10.60;;;7.10;;
41233;SDS011;26968;42.686;23.352;2023-04-05T13:15:41;10.85;;;7.57;;
41233;SDS011;26968;42.686;23.352;2023-04-05T13:18:06;12.52;;;7.68;;
41233;SDS011;26968;42.686;23.352;2023-04-05T13:20:32;11.07;;;8.13;;
41233;SDS011;26968;42.686;23.352;2023-04-05T13:22:57;38.85;;;7.82;;
41233;SDS011;26968;42.686;23.352;2023-04-05T13:25:27;10.73;;;7.72;;
41233;SDS011;26968;42.686;23.352;2023-04-05T13:27:53;14.23;;;7.15;;
41233;SDS011;26968;42.686;23.352;2023-04-05T13:30:18;19.63;;;7.55;;
41233;SDS011;26968;42.686;23.352;2023-04-05T13:32:44;18.92;;;9.90;;
41233;SDS011;26968;42.686;23.352;2023-04-05T13:35:09;9.88;;;6.15;;
41233;SDS011;26968;42.686;23.352;2023-04-05T13:37:35;10.13;;;6.63;;
41233;SDS011;26968;42.686;23.352;2023-04-05T13:40:00;9.73;;;7.20;;
41233;SDS011;26968;42.686;23.352;2023-04-05T13:42:26;10.60;;;7.10;;
41233;SDS011;26968;42.686;23.352;2023-04-05T13:44:51;12.05;;;6.90;;
41233;SDS011;26968;42.686;23.352;2023-04-05T13:47:17;11.07;;;7.45;;
41233;SDS011;26968;42.686;23.352;2023-04-05T13:49:43;11.77;;;7.18;;
41233;SDS011;26968;42.686;23.352;2023-04-05T13:52:09;15.30;;;8.38;;
41233;SDS011;26968;42.686;23.352;2023-04-05T13:54:35;14.27;;;7.60;;
41233;SDS011;26968;42.686;23.352;2023-04-05T13:57:00;12.00;;;8.30;;
41233;SDS011;26968;42.686;23.352;2023-04-05T13:59:26;13.15;;;8.65;;
41233;SDS011;26968;42.686;23.352;2023-04-05T14:01:51;20.52;;;8.38;;
41233;SDS011;26968;42.686;23.352;2023-04-05T14:04:17;13.73;;;8.10;;
41233;SDS011;26968;42.686;23.352;2023-04-05T14:06:43;11.15;;;8.15;;
41233;SDS011;26968;42.686;23.352;2023-04-05T14:09:09;11.95;;;8.00;;
41233;SDS011;26968;42.686;23.352;2023-04-05T14:11:35;12.88;;;8.38;;
41233;SDS011;26968;42.686;23.352;2023-04-05T14:14:00;12.75;;;8.43;;
41233;SDS011;26968;42.686;23.352;2023-04-05T14:16:26;12.75;;;7.95;;
41233;SDS011;26968;42.686;23.352;2023-04-05T14:18:52;12.70;;;8.00;;
41233;SDS011;26968;42.686;23.352;2023-04-05T14:21:17;17.58;;;8.82;;
41233;SDS011;26968;42.686;23.352;2023-04-05T14:23:43;12.15;;;8.48;;
41233;SDS011;26968;42.686;23.352;2023-04-05T14:26:09;15.38;;;8.52;;
41233;SDS011;26968;42.686;23.352;2023-04-05T14:28:35;10.88;;;7.90;;
41233;SDS011;26968;42.686;23.352;2023-04-05T14:31:00;13.15;;;8.38;;
41233;SDS011;26968;42.686;23.352;2023-04-05T14:33:26;14.60;;;9.00;;
41233;SDS011;26968;42.686;23.352;2023-04-05T14:35:52;14.95;;;8.70;;
41233;SDS011;26968;42.686;23.352;2023-04-05T14:38:17;13.32;;;9.75;;
41233;SDS011;26968;42.686;23.352;2023-04-05T14:40:43;11.98;;;8.95;;
41233;SDS011;26968;42.686;23.352;2023-04-05T14:43:10;13.18;;;9.43;;
41233;SDS011;26968;42.686;23.352;2023-04-05T14:45:38;15.75;;;9.40;;
41233;SDS011;26968;42.686;23.352;2023-04-05T14:48:03;12.88;;;9.57;;
41233;SDS011;26968;42.686;23.352;2023-04-05T14:50:29;14.10;;;9.07;;
41233;SDS011;26968;42.686;23.352;2023-04-05T14:52:57;17.17;;;9.75;;
41233;SDS011;26968;42.686;23.352;2023-04-05T14:55:22;14.70;;;9.90;;
41233;SDS011;26968;42.686;23.352;2023-04-05T14:57:48;14.63;;;10.68;;
41233;SDS011;26968;42.686;23.352;2023-04-05T15:00:14;14.73;;;10.35;;
41233;SDS011;26968;42.686;23.352;2023-04-05T15:02:39;14.20;;;9.50;;
41233;SDS011;26968;42.686;23.352;2023-04-05T15:05:05;15.18;;;9.85;;
41233;SDS011;26968;42.686;23.352;2023-04-05T15:07:31;17.20;;;9.88;;
41233;SDS011;26968;42.686;23.352;2023-04-05T15:09:57;16.48;;;9.60;;
41233;SDS011;26968;42.686;23.352;2023-04-05T15:12:22;15.23;;;10.45;;
41233;SDS011;26968;42.686;23.352;2023-04-05T15:14:48;15.75;;;10.10;;
41233;SDS011;26968;42.686;23.352;2023-04-05T15:17:15;16.63;;;9.45;;
41233;SDS011;26968;42.686;23.352;2023-04-05T15:19:41;24.30;;;11.38;;